sensor_id;sensor_type;location;lat;lon;timestamp;temperature;humidity
57552;DHT22;43379;48.160;14.036;2023-06-14T00:01:50;16.10;91.30
57552;DHT22;43379;48.160;14.036;2023-06-14T00:04:16;16.10;91.40
57552;DHT22;43379;48.160;14.036;2023-06-14T00:06:42;16.00;91.40
57552;DHT22;43379;48.160;14.036;2023-06-14T00:09:11;16.00;91.30
57552;DHT22;43379;48.160;14.036;2023-06-14T00:11:39;16.00;91.40
57552;DHT22;43379;48.160;14.036;2023-06-14T00:14:05;16.00;91.40
57552;DHT22;43379;48.160;14.036;2023-06-14T00:16:31;16.00;91.30
57552;DHT22;43379;48.160;14.036;2023-06-14T00:18:59;15.90;91.60
57552;DHT22;43379;48.160;14.036;2023-06-14T00:21:24;15.90;91.60
57552;DHT22;43379;48.160;14.036;2023-06-14T00:23:50;15.90;92.00
57552;DHT22;43379;48.160;14.036;2023-06-14T00:26:16;15.90;92.20
57552;DHT22;43379;48.160;14.036;2023-06-14T00:28:41;15.90;92.30
57552;DHT22;43379;48.160;14.036;2023-06-14T00:31:07;15.90;92.30
57552;DHT22;43379;48.160;14.036;2023-06-14T00:33:33;15.80;92.10
57552;DHT22;43379;48.160;14.036;2023-06-14T00:35:59;15.80;91.90
57552;DHT22;43379;48.160;14.036;2023-06-14T00:38:24;15.70;91.60
57552;DHT22;43379;48.160;14.036;2023-06-14T00:40:51;15.70;91.30
57552;DHT22;43379;48.160;14.036;2023-06-14T00:43:16;15.70;91.10
57552;DHT22;43379;48.160;14.036;2023-06-14T00:45:42;15.70;91.40
57552;DHT22;43379;48.160;14.036;2023-06-14T00:48:08;15.50;91.80
57552;DHT22;43379;48.160;14.036;2023-06-14T00:50:35;15.40;92.10
57552;DHT22;43379;48.160;14.036;2023-06-14T00:53:02;15.40;92.40
57552;DHT22;43379;48.160;14.036;2023-06-14T00:55:28;15.30;92.60
57552;DHT22;43379;48.160;14.036;2023-06-14T00:57:55;15.30;93.00
57552;DHT22;43379;48.160;14.036;2023-06-14T01:00:21;15.30;93.00
57552;DHT22;43379;48.160;14.036;2023-06-14T01:02:47;15.40;93.20
57552;DHT22;43379;48.160;14.036;2023-06-14T01:05:14;15.30;92.90
57552;DHT22;43379;48.160;14.036;2023-06-14T01:08:05;15.30;93.00
57552;DHT22;43379;48.160;14.036;2023-06-14T01:10:53;15.20;93.30
57552;DHT22;43379;48.160;14.036;2023-06-14T01:13:30;15.10;93.50
57552;DHT22;43379;48.160;14.036;2023-06-14T01:15:57;15.20;93.40
57552;DHT22;43379;48.160;14.036;2023-06-14T01:18:24;15.10;93.40
57552;DHT22;43379;48.160;14.036;2023-06-14T01:20:51;15.10;93.20
57552;DHT22;43379;48.160;14.036;2023-06-14T01:23:21;15.10;93.00
57552;DHT22;43379;48.160;14.036;2023-06-14T01:25:48;15.00;92.90
57552;DHT22;43379;48.160;14.036;2023-06-14T01:28:18;15.00;92.70
57552;DHT22;43379;48.160;14.036;2023-06-14T01:30:48;15.00;92.90
57552;DHT22;43379;48.160;14.036;2023-06-14T01:33:22;14.90;93.00
57552;DHT22;43379;48.160;14.036;2023-06-14T01:35:50;14.90;93.10
57552;DHT22;43379;48.160;14.036;2023-06-14T01:38:19;14.90;93.00
57552;DHT22;43379;48.160;14.036;2023-06-14T01:40:45;15.00;93.20
57552;DHT22;43379;48.160;14.036;2023-06-14T01:43:14;14.90;93.10
57552;DHT22;43379;48.160;14.036;2023-06-14T01:45:41;14.80;93.10
57552;DHT22;43379;48.160;14.036;2023-06-14T01:48:08;14.80;93.10
57552;DHT22;43379;48.160;14.036;2023-06-14T01:50:34;14.80;93.30
57552;DHT22;43379;48.160;14.036;2023-06-14T01:53:00;14.80;93.10
57552;DHT22;43379;48.160;14.036;2023-06-14T01:55:26;14.90;93.40
57552;DHT22;43379;48.160;14.036;2023-06-14T01:57:52;14.90;93.60
57552;DHT22;43379;48.160;14.036;2023-06-14T02:00:18;14.80;93.60
57552;DHT22;43379;48.160;14.036;2023-06-14T02:02:45;14.80;93.70
57552;DHT22;43379;48.160;14.036;2023-06-14T02:05:11;14.70;94.00
57552;DHT22;43379;48.160;14.036;2023-06-14T02:07:37;14.60;94.20
57552;DHT22;43379;48.160;14.036;2023-06-14T02:10:04;14.60;94.40
57552;DHT22;43379;48.160;14.036;2023-06-14T02:12:29;14.60;94.70
57552;DHT22;43379;48.160;14.036;2023-06-14T02:14:55;14.60;94.90
57552;DHT22;43379;48.160;14.036;2023-06-14T02:17:22;14.60;94.90
57552;DHT22;43379;48.160;14.036;2023-06-14T02:19:47;14.60;95.20
57552;DHT22;43379;48.160;14.036;2023-06-14T02:22:14;14.60;95.20
57552;DHT22;43379;48.160;14.036;2023-06-14T02:24:41;14.50;95.40
57552;DHT22;43379;48.160;14.036;2023-06-14T02:27:07;14.50;95.50
57552;DHT22;43379;48.160;14.036;2023-06-14T02:29:33;14.50;95.50
57552;DHT22;43379;48.160;14.036;2023-06-14T02:31:59;14.50;95.40
57552;DHT22;43379;48.160;14.036;2023-06-14T02:34:25;14.50;95.50
57552;DHT22;43379;48.160;14.036;2023-06-14T02:36:50;14.40;95.50
57552;DHT22;43379;48.160;14.036;2023-06-14T02:39:18;14.40;95.40
57552;DHT22;43379;48.160;14.036;2023-06-14T02:41:46;14.50;95.60
57552;DHT22;43379;48.160;14.036;2023-06-14T02:44:13;14.60;95.90
57552;DHT22;43379;48.160;14.036;2023-06-14T02:46:39;14.50;95.80
57552;DHT22;43379;48.160;14.036;2023-06-14T02:49:05;14.50;96.10
57552;DHT22;43379;48.160;14.036;2023-06-14T02:51:31;14.40;96.20
57552;DHT22;43379;48.160;14.036;2023-06-14T02:53:56;14.30;96.20
57552;DHT22;43379;48.160;14.036;2023-06-14T02:56:22;14.30;96.40
57552;DHT22;43379;48.160;14.036;2023-06-14T02:58:48;14.40;96.30
57552;DHT22;43379;48.160;14.036;2023-06-14T03:01:14;14.40;96.30
57552;DHT22;43379;48.160;14.036;2023-06-14T03:03:40;14.40;96.20
57552;DHT22;43379;48.160;14.036;2023-06-14T03:06:05;14.50;96.20
57552;DHT22;43379;48.160;14.036;2023-06-14T03:08:33;14.30;96.30
57552;DHT22;43379;48.160;14.036;2023-06-14T03:11:04;14.30;96.50
57552;DHT22;43379;48.160;14.036;2023-06-14T03:13:34;14.30;96.30
57552;DHT22;43379;48.160;14.036;2023-06-14T03:16:00;14.20;96.40
57552;DHT22;43379;48.160;14.036;2023-06-14T03:18:31;14.10;96.40
57552;DHT22;43379;48.160;14.036;2023-06-14T03:21:03;14.10;96.60
57552;DHT22;43379;48.160;14.036;2023-06-14T03:23:30;14.10;96.70
57552;DHT22;43379;48.160;14.036;2023-06-14T03:25:56;14.10;96.50
57552;DHT22;43379;48.160;14.036;2023-06-14T03:28:22;14.10;96.40
57552;DHT22;43379;48.160;14.036;2023-06-14T03:30:48;14.00;96.40
57552;DHT22;43379;48.160;14.036;2023-06-14T03:33:13;14.10;96.30
57552;DHT22;43379;48.160;14.036;2023-06-14T03:35:40;14.10;96.40
57552;DHT22;43379;48.160;14.036;2023-06-14T03:38:06;14.00;96.40
57552;DHT22;43379;48.160;14.036;2023-06-14T03:40:32;13.90;96.40
57552;DHT22;43379;48.160;14.036;2023-06-14T03:42:58;13.90;96.50
57552;DHT22;43379;48.160;14.036;2023-06-14T03:45:23;13.90;96.50
57552;DHT22;43379;48.160;14.036;2023-06-14T03:47:49;13.90;96.50
57552;DHT22;43379;48.160;14.036;2023-06-14T03:50:16;14.00;96.50
57552;DHT22;43379;48.160;14.036;2023-06-14T03:52:42;14.00;96.50
57552;DHT22;43379;48.160;14.036;2023-06-14T03:55:09;14.00;96.40
57552;DHT22;43379;48.160;14.036;2023-06-14T03:57:35;14.00;96.50
57552;DHT22;43379;48.160;14.036;2023-06-14T04:00:01;14.00;96.50
57552;DHT22;43379;48.160;14.036;2023-06-14T04:02:30;14.00;96.70
57552;DHT22;43379;48.160;14.036;2023-06-14T04:04:55;14.00;96.40
57552;DHT22;43379;48.160;14.036;2023-06-14T04:07:21;14.00;96.60
57552;DHT22;43379;48.160;14.036;2023-06-14T04:09:46;14.10;96.50
57552;DHT22;43379;48.160;14.036;2023-06-14T04:12:12;14.10;96.60
57552;DHT22;43379;48.160;14.036;2023-06-14T04:14:39;14.10;96.70
57552;DHT22;43379;48.160;14.036;2023-06-14T04:17:06;14.20;96.50
57552;DHT22;43379;48.160;14.036;2023-06-14T04:19:31;14.20;96.50
57552;DHT22;43379;48.160;14.036;2023-06-14T04:21:58;14.30;96.60
57552;DHT22;43379;48.160;14.036;2023-06-14T04:24:27;14.30;96.50
57552;DHT22;43379;48.160;14.036;2023-06-14T04:27:00;14.40;96.50
57552;DHT22;43379;48.160;14.036;2023-06-14T04:29:29;14.50;96.40
57552;DHT22;43379;48.160;14.036;2023-06-14T04:31:55;14.60;96.30
57552;DHT22;43379;48.160;14.036;2023-06-14T04:34:25;14.50;96.10
57552;DHT22;43379;48.160;14.036;2023-06-14T04:36:58;14.60;96.00
57552;DHT22;43379;48.160;14.036;2023-06-14T04:39:25;14.60;95.80
57552;DHT22;43379;48.160;14.036;2023-06-14T04:41:52;14.60;95.70
57552;DHT22;43379;48.160;14.036;2023-06-14T04:44:18;14.60;95.90
57552;DHT22;43379;48.160;14.036;2023-06-14T04:46:45;14.70;95.80
57552;DHT22;43379;48.160;14.036;2023-06-14T04:49:15;14.80;95.80
57552;DHT22;43379;48.160;14.036;2023-06-14T04:51:44;14.90;95.80
57552;DHT22;43379;48.160;14.036;2023-06-14T04:54:11;14.90;95.90
57552;DHT22;43379;48.160;14.036;2023-06-14T04:56:41;15.00;95.60
57552;DHT22;43379;48.160;14.036;2023-06-14T04:59:07;15.20;95.50
57552;DHT22;43379;48.160;14.036;2023-06-14T05:01:34;15.30;95.30
57552;DHT22;43379;48.160;14.036;2023-06-14T05:04:00;15.40;95.30
57552;DHT22;43379;48.160;14.036;2023-06-14T05:06:25;15.50;95.30
57552;DHT22;43379;48.160;14.036;2023-06-14T05:08:54;15.60;95.20
57552;DHT22;43379;48.160;14.036;2023-06-14T05:11:20;15.70;95.30
57552;DHT22;43379;48.160;14.036;2023-06-14T05:13:46;15.80;95.10
57552;DHT22;43379;48.160;14.036;2023-06-14T05:16:12;16.00;94.80
57552;DHT22;43379;48.160;14.036;2023-06-14T05:18:38;16.10;94.60
57552;DHT22;43379;48.160;14.036;2023-06-14T05:21:05;16.20;94.50
57552;DHT22;43379;48.160;14.036;2023-06-14T05:23:31;16.40;94.80
57552;DHT22;43379;48.160;14.036;2023-06-14T05:25:57;16.50;94.60
57552;DHT22;43379;48.160;14.036;2023-06-14T05:28:23;16.70;94.30
57552;DHT22;43379;48.160;14.036;2023-06-14T05:30:49;16.70;94.00
57552;DHT22;43379;48.160;14.036;2023-06-14T05:33:15;16.80;94.10
57552;DHT22;43379;48.160;14.036;2023-06-14T05:35:41;16.90;94.10
57552;DHT22;43379;48.160;14.036;2023-06-14T05:38:06;17.00;93.90
57552;DHT22;43379;48.160;14.036;2023-06-14T05:40:33;17.10;93.90
57552;DHT22;43379;48.160;14.036;2023-06-14T05:42:58;17.40;93.90
57552;DHT22;43379;48.160;14.036;2023-06-14T05:45:24;17.50;93.80
57552;DHT22;43379;48.160;14.036;2023-06-14T05:47:50;17.80;93.90
57552;DHT22;43379;48.160;14.036;2023-06-14T05:50:16;18.00;93.80
57552;DHT22;43379;48.160;14.036;2023-06-14T05:52:41;18.20;93.80
57552;DHT22;43379;48.160;14.036;2023-06-14T05:55:07;18.40;93.90
57552;DHT22;43379;48.160;14.036;2023-06-14T05:57:33;18.70;93.60
57552;DHT22;43379;48.160;14.036;2023-06-14T05:59:59;18.80;93.10
57552;DHT22;43379;48.160;14.036;2023-06-14T06:02:24;19.10;93.20
57552;DHT22;43379;48.160;14.036;2023-06-14T06:04:50;19.30;93.10
57552;DHT22;43379;48.160;14.036;2023-06-14T06:07:16;19.50;92.40
57552;DHT22;43379;48.160;14.036;2023-06-14T06:09:41;19.70;92.30
57552;DHT22;43379;48.160;14.036;2023-06-14T06:12:07;19.90;92.40
57552;DHT22;43379;48.160;14.036;2023-06-14T06:14:33;20.00;92.00
57552;DHT22;43379;48.160;14.036;2023-06-14T06:16:59;20.30;92.30
57552;DHT22;43379;48.160;14.036;2023-06-14T06:19:24;20.50;92.00
57552;DHT22;43379;48.160;14.036;2023-06-14T06:21:50;20.60;91.30
57552;DHT22;43379;48.160;14.036;2023-06-14T06:24:16;20.80;91.10
57552;DHT22;43379;48.160;14.036;2023-06-14T06:26:42;20.80;91.10
57552;DHT22;43379;48.160;14.036;2023-06-14T06:29:08;20.90;91.10
57552;DHT22;43379;48.160;14.036;2023-06-14T06:31:33;21.10;91.10
57552;DHT22;43379;48.160;14.036;2023-06-14T06:33:59;21.10;90.80
57552;DHT22;43379;48.160;14.036;2023-06-14T06:36:25;21.20;90.20
57552;DHT22;43379;48.160;14.036;2023-06-14T06:38:51;21.30;90.80
57552;DHT22;43379;48.160;14.036;2023-06-14T06:41:16;21.60;91.30
57552;DHT22;43379;48.160;14.036;2023-06-14T06:43:42;21.90;90.90
57552;DHT22;43379;48.160;14.036;2023-06-14T06:46:07;22.00;89.70
57552;DHT22;43379;48.160;14.036;2023-06-14T06:48:33;22.00;88.50
57552;DHT22;43379;48.160;14.036;2023-06-14T06:50:59;21.80;87.60
57552;DHT22;43379;48.160;14.036;2023-06-14T06:53:24;21.80;87.70
57552;DHT22;43379;48.160;14.036;2023-06-14T06:55:50;21.90;87.80
57552;DHT22;43379;48.160;14.036;2023-06-14T06:58:16;21.80;86.00
57552;DHT22;43379;48.160;14.036;2023-06-14T07:00:42;21.70;86.10
57552;DHT22;43379;48.160;14.036;2023-06-14T07:03:07;21.80;86.80
57552;DHT22;43379;48.160;14.036;2023-06-14T07:05:33;22.00;87.60
57552;DHT22;43379;48.160;14.036;2023-06-14T07:07:59;22.20;88.40
57552;DHT22;43379;48.160;14.036;2023-06-14T07:10:24;22.40;88.30
57552;DHT22;43379;48.160;14.036;2023-06-14T07:12:51;22.60;86.10
57552;DHT22;43379;48.160;14.036;2023-06-14T07:15:16;22.70;86.80
57552;DHT22;43379;48.160;14.036;2023-06-14T07:17:42;22.70;83.90
57552;DHT22;43379;48.160;14.036;2023-06-14T07:20:08;22.80;85.20
57552;DHT22;43379;48.160;14.036;2023-06-14T07:22:38;23.00;85.90
57552;DHT22;43379;48.160;14.036;2023-06-14T07:25:04;23.20;84.40
57552;DHT22;43379;48.160;14.036;2023-06-14T07:27:30;23.20;83.60
57552;DHT22;43379;48.160;14.036;2023-06-14T07:29:55;23.30;83.10
57552;DHT22;43379;48.160;14.036;2023-06-14T07:32:21;23.40;83.10
57552;DHT22;43379;48.160;14.036;2023-06-14T07:34:46;23.50;82.00
57552;DHT22;43379;48.160;14.036;2023-06-14T07:37:12;23.40;81.50
57552;DHT22;43379;48.160;14.036;2023-06-14T07:39:38;22.90;79.20
57552;DHT22;43379;48.160;14.036;2023-06-14T07:42:04;22.80;81.60
57552;DHT22;43379;48.160;14.036;2023-06-14T07:44:30;23.00;83.10
57552;DHT22;43379;48.160;14.036;2023-06-14T07:46:58;23.00;82.80
57552;DHT22;43379;48.160;14.036;2023-06-14T07:49:25;23.10;82.10
57552;DHT22;43379;48.160;14.036;2023-06-14T07:51:51;23.10;81.30
57552;DHT22;43379;48.160;14.036;2023-06-14T07:54:19;23.30;83.20
57552;DHT22;43379;48.160;14.036;2023-06-14T07:56:45;23.50;82.30
57552;DHT22;43379;48.160;14.036;2023-06-14T07:59:11;23.40;81.90
57552;DHT22;43379;48.160;14.036;2023-06-14T08:01:36;23.50;83.20
57552;DHT22;43379;48.160;14.036;2023-06-14T08:04:02;23.50;82.00
57552;DHT22;43379;48.160;14.036;2023-06-14T08:06:28;23.60;83.10
57552;DHT22;43379;48.160;14.036;2023-06-14T08:08:53;23.80;83.20
57552;DHT22;43379;48.160;14.036;2023-06-14T08:11:19;24.10;82.80
57552;DHT22;43379;48.160;14.036;2023-06-14T08:13:45;24.20;81.50
57552;DHT22;43379;48.160;14.036;2023-06-14T08:16:10;24.40;82.50
57552;DHT22;43379;48.160;14.036;2023-06-14T08:18:36;24.40;81.50
57552;DHT22;43379;48.160;14.036;2023-06-14T08:21:02;24.40;79.30
57552;DHT22;43379;48.160;14.036;2023-06-14T08:23:28;24.20;77.90
57552;DHT22;43379;48.160;14.036;2023-06-14T08:25:54;24.10;78.90
57552;DHT22;43379;48.160;14.036;2023-06-14T08:28:20;24.30;81.00
57552;DHT22;43379;48.160;14.036;2023-06-14T08:30:46;24.20;79.60
57552;DHT22;43379;48.160;14.036;2023-06-14T08:33:12;24.40;79.80
57552;DHT22;43379;48.160;14.036;2023-06-14T08:35:37;24.40;79.10
57552;DHT22;43379;48.160;14.036;2023-06-14T08:38:04;24.30;78.30
57552;DHT22;43379;48.160;14.036;2023-06-14T08:40:30;24.50;80.90
57552;DHT22;43379;48.160;14.036;2023-06-14T08:42:56;24.60;78.90
57552;DHT22;43379;48.160;14.036;2023-06-14T08:45:23;24.70;82.00
57552;DHT22;43379;48.160;14.036;2023-06-14T08:47:53;24.80;80.00
57552;DHT22;43379;48.160;14.036;2023-06-14T08:50:24;24.90;80.30
57552;DHT22;43379;48.160;14.036;2023-06-14T08:52:57;25.00;80.80
57552;DHT22;43379;48.160;14.036;2023-06-14T08:55:27;25.10;80.60
57552;DHT22;43379;48.160;14.036;2023-06-14T08:57:57;25.10;80.10
57552;DHT22;43379;48.160;14.036;2023-06-14T09:00:24;25.30;79.50
57552;DHT22;43379;48.160;14.036;2023-06-14T09:02:51;25.30;77.60
57552;DHT22;43379;48.160;14.036;2023-06-14T09:05:22;25.30;78.80
57552;DHT22;43379;48.160;14.036;2023-06-14T09:07:48;25.20;75.90
57552;DHT22;43379;48.160;14.036;2023-06-14T09:10:16;25.10;76.20
57552;DHT22;43379;48.160;14.036;2023-06-14T09:12:42;25.00;75.90
57552;DHT22;43379;48.160;14.036;2023-06-14T09:15:08;25.00;77.90
57552;DHT22;43379;48.160;14.036;2023-06-14T09:17:38;25.10;79.60
57552;DHT22;43379;48.160;14.036;2023-06-14T09:20:08;25.20;79.50
57552;DHT22;43379;48.160;14.036;2023-06-14T09:22:43;25.40;80.40
57552;DHT22;43379;48.160;14.036;2023-06-14T09:25:08;25.60;79.10
57552;DHT22;43379;48.160;14.036;2023-06-14T09:27:34;25.30;76.10
57552;DHT22;43379;48.160;14.036;2023-06-14T09:30:04;25.30;76.40
57552;DHT22;43379;48.160;14.036;2023-06-14T09:32:30;25.20;76.70
57552;DHT22;43379;48.160;14.036;2023-06-14T09:34:57;25.20;77.40
57552;DHT22;43379;48.160;14.036;2023-06-14T09:37:28;25.20;76.60
57552;DHT22;43379;48.160;14.036;2023-06-14T09:39:54;25.30;77.30
57552;DHT22;43379;48.160;14.036;2023-06-14T09:42:20;25.20;77.10
57552;DHT22;43379;48.160;14.036;2023-06-14T09:44:49;25.20;75.50
57552;DHT22;43379;48.160;14.036;2023-06-14T09:47:16;25.20;75.70
57552;DHT22;43379;48.160;14.036;2023-06-14T09:49:42;25.00;74.50
57552;DHT22;43379;48.160;14.036;2023-06-14T09:52:14;24.90;74.40
57552;DHT22;43379;48.160;14.036;2023-06-14T09:54:42;24.80;76.10
57552;DHT22;43379;48.160;14.036;2023-06-14T09:57:11;24.80;75.30
57552;DHT22;43379;48.160;14.036;2023-06-14T09:59:46;24.70;75.80
57552;DHT22;43379;48.160;14.036;2023-06-14T10:02:29;24.70;75.00
57552;DHT22;43379;48.160;14.036;2023-06-14T10:05:02;24.60;74.80
57552;DHT22;43379;48.160;14.036;2023-06-14T10:07:33;24.60;75.90
57552;DHT22;43379;48.160;14.036;2023-06-14T10:10:01;24.60;75.00
57552;DHT22;43379;48.160;14.036;2023-06-14T10:12:27;24.50;74.00
57552;DHT22;43379;48.160;14.036;2023-06-14T10:14:53;24.50;75.00
57552;DHT22;43379;48.160;14.036;2023-06-14T10:17:50;24.60;75.60
57552;DHT22;43379;48.160;14.036;2023-06-14T10:20:39;24.60;75.10
57552;DHT22;43379;48.160;14.036;2023-06-14T10:23:19;24.70;74.40
57552;DHT22;43379;48.160;14.036;2023-06-14T10:25:50;24.80;75.70
57552;DHT22;43379;48.160;14.036;2023-06-14T10:28:17;24.80;74.10
57552;DHT22;43379;48.160;14.036;2023-06-14T10:31:11;24.80;74.40
57552;DHT22;43379;48.160;14.036;2023-06-14T10:33:56;24.70;72.60
57552;DHT22;43379;48.160;14.036;2023-06-14T10:39:07;24.70;74.70
57552;DHT22;43379;48.160;14.036;2023-06-14T10:41:41;24.90;77.80
57552;DHT22;43379;48.160;14.036;2023-06-14T10:46:48;24.90;74.30
57552;DHT22;43379;48.160;14.036;2023-06-14T10:49:41;24.70;72.80
57552;DHT22;43379;48.160;14.036;2023-06-14T10:52:15;24.70;73.30
57552;DHT22;43379;48.160;14.036;2023-06-14T10:55:12;24.80;76.60
57552;DHT22;43379;48.160;14.036;2023-06-14T10:57:52;25.10;77.10
57552;DHT22;43379;48.160;14.036;2023-06-14T11:00:23;25.20;73.80
57552;DHT22;43379;48.160;14.036;2023-06-14T11:05:57;25.40;77.30
57552;DHT22;43379;48.160;14.036;2023-06-14T11:11:13;25.60;75.90
57552;DHT22;43379;48.160;14.036;2023-06-14T11:13:43;25.80;76.50
57552;DHT22;43379;48.160;14.036;2023-06-14T11:16:12;25.80;77.50
57552;DHT22;43379;48.160;14.036;2023-06-14T11:18:38;25.90;75.40
57552;DHT22;43379;48.160;14.036;2023-06-14T11:21:04;25.80;72.20
57552;DHT22;43379;48.160;14.036;2023-06-14T11:23:30;25.80;74.40
57552;DHT22;43379;48.160;14.036;2023-06-14T11:25:56;25.80;73.70
57552;DHT22;43379;48.160;14.036;2023-06-14T11:28:22;25.80;73.30
57552;DHT22;43379;48.160;14.036;2023-06-14T11:30:59;25.80;71.70
57552;DHT22;43379;48.160;14.036;2023-06-14T11:33:25;25.90;73.50
57552;DHT22;43379;48.160;14.036;2023-06-14T11:35:51;25.90;70.90
57552;DHT22;43379;48.160;14.036;2023-06-14T11:38:17;25.70;69.10
57552;DHT22;43379;48.160;14.036;2023-06-14T11:40:43;25.60;67.70
57552;DHT22;43379;48.160;14.036;2023-06-14T11:43:08;25.40;68.10
57552;DHT22;43379;48.160;14.036;2023-06-14T11:45:34;25.30;70.20
57552;DHT22;43379;48.160;14.036;2023-06-14T11:48:00;25.40;74.30
57552;DHT22;43379;48.160;14.036;2023-06-14T11:50:27;25.40;69.50
57552;DHT22;43379;48.160;14.036;2023-06-14T11:52:54;25.40;70.50
57552;DHT22;43379;48.160;14.036;2023-06-14T11:55:21;25.50;71.50
57552;DHT22;43379;48.160;14.036;2023-06-14T11:57:47;25.50;68.40
57552;DHT22;43379;48.160;14.036;2023-06-14T12:00:13;25.60;69.50
57552;DHT22;43379;48.160;14.036;2023-06-14T12:02:41;25.60;72.10
57552;DHT22;43379;48.160;14.036;2023-06-14T12:05:08;25.70;71.90
57552;DHT22;43379;48.160;14.036;2023-06-14T12:07:36;25.70;71.00
57552;DHT22;43379;48.160;14.036;2023-06-14T12:12:28;25.50;69.00
57552;DHT22;43379;48.160;14.036;2023-06-14T12:14:55;25.40;68.40
57552;DHT22;43379;48.160;14.036;2023-06-14T12:17:22;25.30;70.80
57552;DHT22;43379;48.160;14.036;2023-06-14T12:19:49;25.30;72.80
57552;DHT22;43379;48.160;14.036;2023-06-14T12:22:16;25.40;70.00
57552;DHT22;43379;48.160;14.036;2023-06-14T12:24:45;25.30;67.40
57552;DHT22;43379;48.160;14.036;2023-06-14T12:27:12;25.20;66.50
57552;DHT22;43379;48.160;14.036;2023-06-14T12:29:41;25.20;65.90
57552;DHT22;43379;48.160;14.036;2023-06-14T12:32:11;25.20;67.60
57552;DHT22;43379;48.160;14.036;2023-06-14T12:34:37;25.20;69.60
57552;DHT22;43379;48.160;14.036;2023-06-14T12:37:03;25.30;68.30
57552;DHT22;43379;48.160;14.036;2023-06-14T12:39:30;25.30;70.00
57552;DHT22;43379;48.160;14.036;2023-06-14T12:41:58;25.30;73.20
57552;DHT22;43379;48.160;14.036;2023-06-14T12:44:24;25.50;76.60
57552;DHT22;43379;48.160;14.036;2023-06-14T12:46:50;25.60;76.50
57552;DHT22;43379;48.160;14.036;2023-06-14T12:49:18;25.70;77.60
57552;DHT22;43379;48.160;14.036;2023-06-14T12:51:45;25.80;78.20
57552;DHT22;43379;48.160;14.036;2023-06-14T12:54:11;25.90;76.60
57552;DHT22;43379;48.160;14.036;2023-06-14T12:56:37;25.80;75.00
57552;DHT22;43379;48.160;14.036;2023-06-14T12:59:03;25.60;72.50
57552;DHT22;43379;48.160;14.036;2023-06-14T13:01:28;25.50;72.10
57552;DHT22;43379;48.160;14.036;2023-06-14T13:03:54;25.30;73.10
57552;DHT22;43379;48.160;14.036;2023-06-14T13:06:23;25.30;74.50
57552;DHT22;43379;48.160;14.036;2023-06-14T13:08:49;25.20;73.10
57552;DHT22;43379;48.160;14.036;2023-06-14T13:11:15;25.20;73.90
57552;DHT22;43379;48.160;14.036;2023-06-14T13:13:41;25.10;73.30
57552;DHT22;43379;48.160;14.036;2023-06-14T13:16:07;25.10;74.90
57552;DHT22;43379;48.160;14.036;2023-06-14T13:18:33;25.20;76.10
57552;DHT22;43379;48.160;14.036;2023-06-14T13:20:58;25.20;76.30
57552;DHT22;43379;48.160;14.036;2023-06-14T13:23:24;25.20;75.20
57552;DHT22;43379;48.160;14.036;2023-06-14T13:25:50;25.30;77.80
57552;DHT22;43379;48.160;14.036;2023-06-14T13:28:16;25.30;73.70
57552;DHT22;43379;48.160;14.036;2023-06-14T13:30:43;25.00;72.10
57552;DHT22;43379;48.160;14.036;2023-06-14T13:33:09;24.80;71.10
57552;DHT22;43379;48.160;14.036;2023-06-14T13:35:35;24.60;71.70
57552;DHT22;43379;48.160;14.036;2023-06-14T13:38:01;24.50;72.20
57552;DHT22;43379;48.160;14.036;2023-06-14T13:40:26;24.40;71.80
57552;DHT22;43379;48.160;14.036;2023-06-14T13:42:52;24.20;72.70
57552;DHT22;43379;48.160;14.036;2023-06-14T13:45:18;24.20;71.90
57552;DHT22;43379;48.160;14.036;2023-06-14T13:47:43;24.20;72.60
57552;DHT22;43379;48.160;14.036;2023-06-14T13:50:10;24.20;72.80
57552;DHT22;43379;48.160;14.036;2023-06-14T13:52:35;24.10;73.30
57552;DHT22;43379;48.160;14.036;2023-06-14T13:55:02;24.30;74.80
57552;DHT22;43379;48.160;14.036;2023-06-14T13:57:27;24.30;73.10
57552;DHT22;43379;48.160;14.036;2023-06-14T13:59:53;24.30;72.70
57552;DHT22;43379;48.160;14.036;2023-06-14T14:02:21;24.30;71.20
57552;DHT22;43379;48.160;14.036;2023-06-14T14:04:46;24.30;72.50
57552;DHT22;43379;48.160;14.036;2023-06-14T14:07:18;24.30;72.90
57552;DHT22;43379;48.160;14.036;2023-06-14T14:09:44;24.30;70.80
57552;DHT22;43379;48.160;14.036;2023-06-14T14:12:10;24.20;70.60
57552;DHT22;43379;48.160;14.036;2023-06-14T14:14:36;24.20;70.60
57552;DHT22;43379;48.160;14.036;2023-06-14T14:17:02;24.10;70.60
57552;DHT22;43379;48.160;14.036;2023-06-14T14:19:28;24.10;69.40
57552;DHT22;43379;48.160;14.036;2023-06-14T14:21:54;24.00;69.80
57552;DHT22;43379;48.160;14.036;2023-06-14T14:24:19;24.00;69.40
57552;DHT22;43379;48.160;14.036;2023-06-14T14:26:45;24.00;69.30
57552;DHT22;43379;48.160;14.036;2023-06-14T14:29:14;23.90;69.50
57552;DHT22;43379;48.160;14.036;2023-06-14T14:31:39;23.90;68.60
57552;DHT22;43379;48.160;14.036;2023-06-14T14:34:05;23.90;68.70
57552;DHT22;43379;48.160;14.036;2023-06-14T14:36:31;24.00;70.00
57552;DHT22;43379;48.160;14.036;2023-06-14T14:38:58;24.00;68.30
57552;DHT22;43379;48.160;14.036;2023-06-14T14:41:24;24.00;67.10
57552;DHT22;43379;48.160;14.036;2023-06-14T14:43:49;24.00;68.10
57552;DHT22;43379;48.160;14.036;2023-06-14T14:46:15;24.00;69.00
57552;DHT22;43379;48.160;14.036;2023-06-14T14:48:42;24.10;69.00
57552;DHT22;43379;48.160;14.036;2023-06-14T14:51:07;24.00;68.50
57552;DHT22;43379;48.160;14.036;2023-06-14T14:53:33;24.00;69.00
57552;DHT22;43379;48.160;14.036;2023-06-14T14:55:59;24.00;69.60
57552;DHT22;43379;48.160;14.036;2023-06-14T14:58:25;23.90;70.20
57552;DHT22;43379;48.160;14.036;2023-06-14T15:00:50;24.00;70.50
57552;DHT22;43379;48.160;14.036;2023-06-14T15:03:16;23.90;69.80
57552;DHT22;43379;48.160;14.036;2023-06-14T15:05:42;23.90;68.60
57552;DHT22;43379;48.160;14.036;2023-06-14T15:08:08;23.80;66.90
57552;DHT22;43379;48.160;14.036;2023-06-14T15:10:38;23.80;67.40
57552;DHT22;43379;48.160;14.036;2023-06-14T15:13:06;23.70;66.60
57552;DHT22;43379;48.160;14.036;2023-06-14T15:15:32;23.70;67.20
57552;DHT22;43379;48.160;14.036;2023-06-14T15:17:59;23.70;67.50
57552;DHT22;43379;48.160;14.036;2023-06-14T15:20:25;23.60;67.10
57552;DHT22;43379;48.160;14.036;2023-06-14T15:22:51;23.60;67.80
57552;DHT22;43379;48.160;14.036;2023-06-14T15:25:17;23.60;68.00
57552;DHT22;43379;48.160;14.036;2023-06-14T15:27:43;23.60;69.10
57552;DHT22;43379;48.160;14.036;2023-06-14T15:30:09;23.60;69.00